sensor_id;sensor_type;location;lat;lon;timestamp;P1;durP1;ratioP1;P2;durP2;ratioP2
79135;SDS011;68533;51.090;17.216;2024-02-26T00:02:21;34.97;;;15.35;;
79135;SDS011;68533;51.090;17.216;2024-02-26T00:05:46;32.75;;;14.50;;
79135;SDS011;68533;51.090;17.216;2024-02-26T00:09:11;34.63;;;15.25;;
79135;SDS011;68533;51.090;17.216;2024-02-26T00:12:36;30.00;;;13.07;;
79135;SDS011;68533;51.090;17.216;2024-02-26T00:16:02;37.40;;;14.93;;
79135;SDS011;68533;51.090;17.216;2024-02-26T00:19:30;33.67;;;15.18;;
79135;SDS011;68533;51.090;17.216;2024-02-26T00:22:54;32.75;;;13.52;;
79135;SDS011;68533;51.090;17.216;2024-02-26T00:26:20;32.70;;;12.68;;
79135;SDS011;68533;51.090;17.216;2024-02-26T00:29:46;29.83;;;13.80;;
79135;SDS011;68533;51.090;17.216;2024-02-26T00:33:11;34.17;;;11.82;;
79135;SDS011;68533;51.090;17.216;2024-02-26T00:36:36;27.52;;;13.38;;
79135;SDS011;68533;51.090;17.216;2024-02-26T00:40:02;28.60;;;13.00;;
79135;SDS011;68533;51.090;17.216;2024-02-26T00:43:26;29.02;;;11.85;;
79135;SDS011;68533;51.090;17.216;2024-02-26T00:46:51;28.95;;;12.60;;
79135;SDS011;68533;51.090;17.216;2024-02-26T00:50:16;30.45;;;15.10;;
79135;SDS011;68533;51.090;17.216;2024-02-26T00:53:43;29.30;;;13.30;;
79135;SDS011;68533;51.090;17.216;2024-02-26T00:57:08;26.48;;;12.65;;
79135;SDS011;68533;51.090;17.216;2024-02-26T01:00:32;32.03;;;14.48;;
79135;SDS011;68533;51.090;17.216;2024-02-26T01:03:56;30.42;;;12.18;;
79135;SDS011;68533;51.090;17.216;2024-02-26T01:10:47;24.98;;;10.27;;
79135;SDS011;68533;51.090;17.216;2024-02-26T01:14:13;24.52;;;11.25;;
79135;SDS011;68533;51.090;17.216;2024-02-26T01:17:38;30.67;;;11.43;;
79135;SDS011;68533;51.090;17.216;2024-02-26T01:24:46;22.80;;;10.52;;
79135;SDS011;68533;51.090;17.216;2024-02-26T01:28:11;22.45;;;10.18;;
79135;SDS011;68533;51.090;17.216;2024-02-26T01:31:36;21.40;;;9.10;;
79135;SDS011;68533;51.090;17.216;2024-02-26T01:35:01;26.70;;;10.52;;
79135;SDS011;68533;51.090;17.216;2024-02-26T01:41:51;22.38;;;9.75;;
79135;SDS011;68533;51.090;17.216;2024-02-26T01:45:18;22.95;;;11.05;;
79135;SDS011;68533;51.090;17.216;2024-02-26T01:48:43;22.17;;;9.38;;
79135;SDS011;68533;51.090;17.216;2024-02-26T01:52:11;20.27;;;9.95;;
79135;SDS011;68533;51.090;17.216;2024-02-26T01:55:36;21.52;;;8.15;;
79135;SDS011;68533;51.090;17.216;2024-02-26T01:59:02;14.43;;;7.28;;
79135;SDS011;68533;51.090;17.216;2024-02-26T02:02:31;19.73;;;8.82;;
79135;SDS011;68533;51.090;17.216;2024-02-26T02:05:56;20.92;;;9.25;;
79135;SDS011;68533;51.090;17.216;2024-02-26T02:09:21;22.13;;;10.48;;
79135;SDS011;68533;51.090;17.216;2024-02-26T02:12:50;18.70;;;8.52;;
79135;SDS011;68533;51.090;17.216;2024-02-26T02:16:16;16.67;;;9.27;;
79135;SDS011;68533;51.090;17.216;2024-02-26T02:19:40;19.67;;;10.30;;
79135;SDS011;68533;51.090;17.216;2024-02-26T02:23:05;21.38;;;9.20;;
79135;SDS011;68533;51.090;17.216;2024-02-26T02:26:30;17.17;;;9.15;;
79135;SDS011;68533;51.090;17.216;2024-02-26T02:29:55;19.10;;;9.73;;
79135;SDS011;68533;51.090;17.216;2024-02-26T02:33:21;17.73;;;8.10;;
79135;SDS011;68533;51.090;17.216;2024-02-26T02:36:52;17.48;;;7.93;;
79135;SDS011;68533;51.090;17.216;2024-02-26T02:40:18;15.95;;;7.82;;
79135;SDS011;68533;51.090;17.216;2024-02-26T02:43:44;21.17;;;9.98;;
79135;SDS011;68533;51.090;17.216;2024-02-26T02:47:10;17.60;;;8.88;;
79135;SDS011;68533;51.090;17.216;2024-02-26T02:50:34;19.42;;;8.10;;
79135;SDS011;68533;51.090;17.216;2024-02-26T02:53:59;25.85;;;8.98;;
79135;SDS011;68533;51.090;17.216;2024-02-26T02:57:24;19.10;;;8.20;;
79135;SDS011;68533;51.090;17.216;2024-02-26T03:04:13;21.33;;;10.18;;
79135;SDS011;68533;51.090;17.216;2024-02-26T03:07:37;24.35;;;10.10;;
79135;SDS011;68533;51.090;17.216;2024-02-26T03:11:04;19.92;;;8.73;;
79135;SDS011;68533;51.090;17.216;2024-02-26T03:17:53;21.25;;;8.13;;
79135;SDS011;68533;51.090;17.216;2024-02-26T03:21:17;16.48;;;7.53;;
79135;SDS011;68533;51.090;17.216;2024-02-26T03:28:07;16.73;;;6.68;;
79135;SDS011;68533;51.090;17.216;2024-02-26T03:31:33;18.42;;;8.10;;
79135;SDS011;68533;51.090;17.216;2024-02-26T03:34:58;22.30;;;9.00;;
79135;SDS011;68533;51.090;17.216;2024-02-26T03:38:22;25.08;;;10.02;;
79135;SDS011;68533;51.090;17.216;2024-02-26T03:41:48;21.30;;;8.75;;
79135;SDS011;68533;51.090;17.216;2024-02-26T03:48:40;18.77;;;7.93;;
79135;SDS011;68533;51.090;17.216;2024-02-26T03:52:05;20.38;;;8.45;;
79135;SDS011;68533;51.090;17.216;2024-02-26T03:55:29;14.13;;;6.70;;
79135;SDS011;68533;51.090;17.216;2024-02-26T03:58:54;15.93;;;7.35;;
79135;SDS011;68533;51.090;17.216;2024-02-26T04:02:19;16.85;;;8.48;;
79135;SDS011;68533;51.090;17.216;2024-02-26T04:05:43;16.02;;;7.63;;
79135;SDS011;68533;51.090;17.216;2024-02-26T04:09:15;16.45;;;8.07;;
79135;SDS011;68533;51.090;17.216;2024-02-26T04:12:40;18.27;;;6.82;;
79135;SDS011;68533;51.090;17.216;2024-02-26T04:16:05;14.52;;;6.68;;
79135;SDS011;68533;51.090;17.216;2024-02-26T04:19:30;15.27;;;7.07;;
79135;SDS011;68533;51.090;17.216;2024-02-26T04:22:55;15.38;;;7.50;;
79135;SDS011;68533;51.090;17.216;2024-02-26T04:26:22;16.98;;;6.88;;
79135;SDS011;68533;51.090;17.216;2024-02-26T04:29:50;16.48;;;7.97;;
79135;SDS011;68533;51.090;17.216;2024-02-26T04:33:16;15.15;;;7.55;;
79135;SDS011;68533;51.090;17.216;2024-02-26T04:36:42;15.82;;;6.97;;
79135;SDS011;68533;51.090;17.216;2024-02-26T04:40:07;21.88;;;8.63;;
79135;SDS011;68533;51.090;17.216;2024-02-26T04:43:32;16.88;;;6.72;;
79135;SDS011;68533;51.090;17.216;2024-02-26T04:46:57;17.60;;;7.13;;
79135;SDS011;68533;51.090;17.216;2024-02-26T04:50:21;19.35;;;7.93;;
79135;SDS011;68533;51.090;17.216;2024-02-26T04:53:46;18.90;;;9.05;;
79135;SDS011;68533;51.090;17.216;2024-02-26T04:57:10;18.70;;;8.20;;
79135;SDS011;68533;51.090;17.216;2024-02-26T05:00:36;15.63;;;7.35;;
79135;SDS011;68533;51.090;17.216;2024-02-26T05:04:02;15.13;;;7.60;;
79135;SDS011;68533;51.090;17.216;2024-02-26T05:07:27;13.60;;;6.55;;
79135;SDS011;68533;51.090;17.216;2024-02-26T05:14:16;11.68;;;5.82;;
79135;SDS011;68533;51.090;17.216;2024-02-26T05:17:44;15.32;;;6.90;;
79135;SDS011;68533;51.090;17.216;2024-02-26T05:21:11;15.65;;;7.45;;
79135;SDS011;68533;51.090;17.216;2024-02-26T05:24:37;27.00;;;7.47;;
79135;SDS011;68533;51.090;17.216;2024-02-26T05:28:02;17.38;;;7.75;;
79135;SDS011;68533;51.090;17.216;2024-02-26T05:31:27;18.65;;;8.35;;
79135;SDS011;68533;51.090;17.216;2024-02-26T05:34:52;15.52;;;7.45;;
79135;SDS011;68533;51.090;17.216;2024-02-26T05:38:16;22.83;;;8.77;;
79135;SDS011;68533;51.090;17.216;2024-02-26T05:41:44;23.33;;;9.77;;
79135;SDS011;68533;51.090;17.216;2024-02-26T05:45:11;18.55;;;9.13;;
79135;SDS011;68533;51.090;17.216;2024-02-26T05:48:35;27.25;;;10.93;;
79135;SDS011;68533;51.090;17.216;2024-02-26T05:52:03;26.52;;;11.90;;
79135;SDS011;68533;51.090;17.216;2024-02-26T05:55:27;28.27;;;10.95;;
79135;SDS011;68533;51.090;17.216;2024-02-26T05:58:52;27.35;;;11.02;;
79135;SDS011;68533;51.090;17.216;2024-02-26T06:02:19;20.92;;;9.73;;
79135;SDS011;68533;51.090;17.216;2024-02-26T06:05:43;21.23;;;9.75;;
79135;SDS011;68533;51.090;17.216;2024-02-26T06:09:11;21.50;;;9.73;;
79135;SDS011;68533;51.090;17.216;2024-02-26T06:12:36;18.75;;;8.50;;
79135;SDS011;68533;51.090;17.216;2024-02-26T06:16:02;17.95;;;8.05;;
79135;SDS011;68533;51.090;17.216;2024-02-26T06:19:27;26.70;;;10.48;;
79135;SDS011;68533;51.090;17.216;2024-02-26T06:22:55;20.15;;;9.68;;
79135;SDS011;68533;51.090;17.216;2024-02-26T06:26:22;25.35;;;11.00;;
79135;SDS011;68533;51.090;17.216;2024-02-26T06:29:47;24.23;;;11.80;;
79135;SDS011;68533;51.090;17.216;2024-02-26T06:33:12;25.15;;;11.05;;
79135;SDS011;68533;51.090;17.216;2024-02-26T06:36:47;24.88;;;10.57;;
79135;SDS011;68533;51.090;17.216;2024-02-26T06:40:12;27.20;;;11.93;;
79135;SDS011;68533;51.090;17.216;2024-02-26T06:43:37;31.40;;;13.80;;
79135;SDS011;68533;51.090;17.216;2024-02-26T06:47:03;33.75;;;13.52;;
79135;SDS011;68533;51.090;17.216;2024-02-26T06:50:28;26.65;;;12.38;;
79135;SDS011;68533;51.090;17.216;2024-02-26T06:53:52;24.35;;;12.40;;
79135;SDS011;68533;51.090;17.216;2024-02-26T06:57:19;31.63;;;15.20;;
79135;SDS011;68533;51.090;17.216;2024-02-26T07:00:44;31.00;;;14.55;;
79135;SDS011;68533;51.090;17.216;2024-02-26T07:04:12;32.50;;;15.20;;
79135;SDS011;68533;51.090;17.216;2024-02-26T07:07:38;33.72;;;13.80;;
79135;SDS011;68533;51.090;17.216;2024-02-26T07:11:09;23.98;;;12.13;;
79135;SDS011;68533;51.090;17.216;2024-02-26T07:14:35;25.52;;;12.18;;
79135;SDS011;68533;51.090;17.216;2024-02-26T07:21:24;27.15;;;12.20;;
79135;SDS011;68533;51.090;17.216;2024-02-26T07:24:50;25.35;;;12.13;;
79135;SDS011;68533;51.090;17.216;2024-02-26T07:28:19;21.25;;;11.65;;
79135;SDS011;68533;51.090;17.216;2024-02-26T07:31:44;22.08;;;10.32;;
79135;SDS011;68533;51.090;17.216;2024-02-26T07:35:10;21.77;;;11.68;;
79135;SDS011;68533;51.090;17.216;2024-02-26T07:38:38;23.15;;;10.98;;
79135;SDS011;68533;51.090;17.216;2024-02-26T07:42:05;22.10;;;11.27;;
79135;SDS011;68533;51.090;17.216;2024-02-26T07:45:30;19.75;;;10.35;;
79135;SDS011;68533;51.090;17.216;2024-02-26T07:48:55;17.15;;;8.05;;
79135;SDS011;68533;51.090;17.216;2024-02-26T07:52:20;18.33;;;9.73;;
79135;SDS011;68533;51.090;17.216;2024-02-26T07:55:45;22.73;;;9.45;;
79135;SDS011;68533;51.090;17.216;2024-02-26T07:59:13;17.33;;;9.20;;
79135;SDS011;68533;51.090;17.216;2024-02-26T08:02:47;17.27;;;8.15;;
79135;SDS011;68533;51.090;17.216;2024-02-26T08:06:13;17.55;;;8.50;;
79135;SDS011;68533;51.090;17.216;2024-02-26T08:09:39;19.25;;;9.13;;
79135;SDS011;68533;51.090;17.216;2024-02-26T08:13:04;14.15;;;6.95;;
79135;SDS011;68533;51.090;17.216;2024-02-26T08:16:31;14.93;;;7.15;;
79135;SDS011;68533;51.090;17.216;2024-02-26T08:20:01;14.02;;;7.15;;
79135;SDS011;68533;51.090;17.216;2024-02-26T08:23:25;13.15;;;6.45;;
79135;SDS011;68533;51.090;17.216;2024-02-26T08:26:50;13.43;;;7.38;;
79135;SDS011;68533;51.090;17.216;2024-02-26T08:30:15;10.13;;;5.60;;
79135;SDS011;68533;51.090;17.216;2024-02-26T08:33:42;10.85;;;5.55;;
79135;SDS011;68533;51.090;17.216;2024-02-26T08:37:10;12.02;;;5.35;;
79135;SDS011;68533;51.090;17.216;2024-02-26T08:40:37;8.15;;;4.70;;
79135;SDS011;68533;51.090;17.216;2024-02-26T08:44:02;8.73;;;4.50;;
79135;SDS011;68533;51.090;17.216;2024-02-26T08:47:28;5.82;;;3.97;;
79135;SDS011;68533;51.090;17.216;2024-02-26T08:50:52;6.90;;;4.40;;
79135;SDS011;68533;51.090;17.216;2024-02-26T08:54:17;5.43;;;3.35;;
79135;SDS011;68533;51.090;17.216;2024-02-26T08:57:46;7.68;;;2.90;;
79135;SDS011;68533;51.090;17.216;2024-02-26T09:01:14;6.45;;;3.40;;
79135;SDS011;68533;51.090;17.216;2024-02-26T09:04:39;5.57;;;2.63;;
79135;SDS011;68533;51.090;17.216;2024-02-26T09:08:04;7.38;;;3.35;;
79135;SDS011;68533;51.090;17.216;2024-02-26T09:11:29;5.32;;;2.78;;
79135;SDS011;68533;51.090;17.216;2024-02-26T09:14:53;4.35;;;2.97;;
79135;SDS011;68533;51.090;17.216;2024-02-26T09:18:18;4.00;;;2.75;;
79135;SDS011;68533;51.090;17.216;2024-02-26T09:21:43;4.65;;;2.70;;
79135;SDS011;68533;51.090;17.216;2024-02-26T09:25:08;4.68;;;2.45;;
79135;SDS011;68533;51.090;17.216;2024-02-26T09:28:33;4.82;;;2.78;;
79135;SDS011;68533;51.090;17.216;2024-02-26T09:31:58;4.28;;;2.40;;
79135;SDS011;68533;51.090;17.216;2024-02-26T09:35:26;3.63;;;2.10;;
79135;SDS011;68533;51.090;17.216;2024-02-26T09:38:53;8.80;;;3.13;;
79135;SDS011;68533;51.090;17.216;2024-02-26T09:42:18;5.78;;;3.00;;
79135;SDS011;68533;51.090;17.216;2024-02-26T09:45:46;4.72;;;2.72;;
79135;SDS011;68533;51.090;17.216;2024-02-26T09:49:15;6.88;;;3.17;;
79135;SDS011;68533;51.090;17.216;2024-02-26T09:52:43;4.60;;;2.47;;
79135;SDS011;68533;51.090;17.216;2024-02-26T09:56:12;3.75;;;2.35;;
79135;SDS011;68533;51.090;17.216;2024-02-26T09:59:43;5.30;;;2.60;;
79135;SDS011;68533;51.090;17.216;2024-02-26T10:03:11;4.75;;;2.00;;
79135;SDS011;68533;51.090;17.216;2024-02-26T10:06:38;6.70;;;2.50;;
79135;SDS011;68533;51.090;17.216;2024-02-26T10:10:04;3.05;;;1.98;;
79135;SDS011;68533;51.090;17.216;2024-02-26T10:13:34;5.22;;;1.92;;
79135;SDS011;68533;51.090;17.216;2024-02-26T10:16:58;6.13;;;2.42;;
79135;SDS011;68533;51.090;17.216;2024-02-26T10:20:23;3.40;;;1.70;;
79135;SDS011;68533;51.090;17.216;2024-02-26T10:23:49;4.03;;;1.73;;
79135;SDS011;68533;51.090;17.216;2024-02-26T10:27:14;6.65;;;2.42;;
79135;SDS011;68533;51.090;17.216;2024-02-26T10:30:44;5.00;;;2.55;;
79135;SDS011;68533;51.090;17.216;2024-02-26T10:34:11;6.32;;;2.53;;
79135;SDS011;68533;51.090;17.216;2024-02-26T10:37:37;4.82;;;2.42;;
79135;SDS011;68533;51.090;17.216;2024-02-26T10:41:04;6.40;;;3.22;;
79135;SDS011;68533;51.090;17.216;2024-02-26T10:44:35;7.25;;;2.80;;
79135;SDS011;68533;51.090;17.216;2024-02-26T10:48:00;4.30;;;2.50;;
79135;SDS011;68533;51.090;17.216;2024-02-26T10:51:29;7.63;;;2.97;;
79135;SDS011;68533;51.090;17.216;2024-02-26T10:54:56;7.15;;;3.08;;
79135;SDS011;68533;51.090;17.216;2024-02-26T10:58:25;6.35;;;3.08;;
79135;SDS011;68533;51.090;17.216;2024-02-26T11:01:50;5.10;;;3.08;;
79135;SDS011;68533;51.090;17.216;2024-02-26T11:05:17;5.40;;;3.00;;
79135;SDS011;68533;51.090;17.216;2024-02-26T11:08:43;6.05;;;2.35;;
79135;SDS011;68533;51.090;17.216;2024-02-26T11:12:11;5.00;;;2.60;;
79135;SDS011;68533;51.090;17.216;2024-02-26T11:15:38;6.35;;;2.97;;
79135;SDS011;68533;51.090;17.216;2024-02-26T11:19:04;7.40;;;2.35;;
79135;SDS011;68533;51.090;17.216;2024-02-26T11:22:31;3.15;;;2.08;;
79135;SDS011;68533;51.090;17.216;2024-02-26T11:26:04;5.95;;;1.83;;
79135;SDS011;68533;51.090;17.216;2024-02-26T11:29:44;2.85;;;1.80;;
79135;SDS011;68533;51.090;17.216;2024-02-26T11:33:15;3.65;;;1.63;;
79135;SDS011;68533;51.090;17.216;2024-02-26T11:36:39;3.60;;;2.00;;
79135;SDS011;68533;51.090;17.216;2024-02-26T11:40:05;4.22;;;1.73;;
79135;SDS011;68533;51.090;17.216;2024-02-26T11:43:50;4.28;;;1.35;;
79135;SDS011;68533;51.090;17.216;2024-02-26T11:47:19;4.32;;;1.70;;
79135;SDS011;68533;51.090;17.216;2024-02-26T11:50:49;2.58;;;1.40;;
79135;SDS011;68533;51.090;17.216;2024-02-26T11:58:01;2.63;;;1.55;;
79135;SDS011;68533;51.090;17.216;2024-02-26T12:01:37;3.95;;;1.58;;
79135;SDS011;68533;51.090;17.216;2024-02-26T12:05:30;2.67;;;1.38;;
79135;SDS011;68533;51.090;17.216;2024-02-26T12:08:55;2.05;;;1.25;;
79135;SDS011;68533;51.090;17.216;2024-02-26T12:12:39;4.45;;;2.88;;
79135;SDS011;68533;51.090;17.216;2024-02-26T12:16:04;3.13;;;1.08;;
79135;SDS011;68533;51.090;17.216;2024-02-26T12:19:33;3.13;;;1.15;;
79135;SDS011;68533;51.090;17.216;2024-02-26T12:23:01;2.17;;;1.42;;
79135;SDS011;68533;51.090;17.216;2024-02-26T12:26:39;3.00;;;1.50;;
79135;SDS011;68533;51.090;17.216;2024-02-26T12:30:05;3.25;;;1.30;;
79135;SDS011;68533;51.090;17.216;2024-02-26T12:33:30;3.88;;;1.50;;
79135;SDS011;68533;51.090;17.216;2024-02-26T12:36:55;6.88;;;1.90;;
79135;SDS011;68533;51.090;17.216;2024-02-26T12:40:24;2.83;;;1.52;;
79135;SDS011;68533;51.090;17.216;2024-02-26T12:43:49;5.22;;;2.90;;
79135;SDS011;68533;51.090;17.216;2024-02-26T12:47:16;9.27;;;2.20;;
79135;SDS011;68533;51.090;17.216;2024-02-26T12:50:44;4.03;;;1.83;;
79135;SDS011;68533;51.090;17.216;2024-02-26T12:54:16;2.30;;;1.48;;
79135;SDS011;68533;51.090;17.216;2024-02-26T12:57:42;6.88;;;2.20;;
79135;SDS011;68533;51.090;17.216;2024-02-26T13:01:07;4.10;;;1.80;;
79135;SDS011;68533;51.090;17.216;2024-02-26T13:04:43;3.33;;;1.80;;
79135;SDS011;68533;51.090;17.216;2024-02-26T13:08:08;4.03;;;2.33;;
79135;SDS011;68533;51.090;17.216;2024-02-26T13:11:34;4.88;;;2.17;;
79135;SDS011;68533;51.090;17.216;2024-02-26T13:15:02;3.53;;;1.30;;
79135;SDS011;68533;51.090;17.216;2024-02-26T13:18:30;5.70;;;2.42;;
79135;SDS011;68533;51.090;17.216;2024-02-26T13:22:05;3.90;;;2.13;;
79135;SDS011;68533;51.090;17.216;2024-02-26T13:25:32;5.25;;;2.42;;
79135;SDS011;68533;51.090;17.216;2024-02-26T13:29:03;3.45;;;1.63;;
79135;SDS011;68533;51.090;17.216;2024-02-26T13:32:34;2.42;;;1.40;;
79135;SDS011;68533;51.090;17.216;2024-02-26T13:36:02;7.43;;;2.20;;
79135;SDS011;68533;51.090;17.216;2024-02-26T13:39:27;5.85;;;2.15;;
79135;SDS011;68533;51.090;17.216;2024-02-26T13:42:52;3.50;;;1.70;;
79135;SDS011;68533;51.090;17.216;2024-02-26T13:46:18;3.65;;;1.83;;
79135;SDS011;68533;51.090;17.216;2024-02-26T13:49:45;3.22;;;1.52;;
79135;SDS011;68533;51.090;17.216;2024-02-26T13:53:13;2.58;;;1.63;;
79135;SDS011;68533;51.090;17.216;2024-02-26T13:56:39;5.60;;;1.42;;
79135;SDS011;68533;51.090;17.216;2024-02-26T14:00:04;2.75;;;1.65;;
79135;SDS011;68533;51.090;17.216;2024-02-26T14:03:29;3.58;;;1.80;;
79135;SDS011;68533;51.090;17.216;2024-02-26T14:06:54;5.20;;;2.08;;
79135;SDS011;68533;51.090;17.216;2024-02-26T14:10:21;2.45;;;1.42;;
79135;SDS011;68533;51.090;17.216;2024-02-26T14:13:46;3.28;;;1.58;;
79135;SDS011;68533;51.090;17.216;2024-02-26T14:17:11;3.22;;;1.65;;
79135;SDS011;68533;51.090;17.216;2024-02-26T14:20:39;5.90;;;1.92;;
79135;SDS011;68533;51.090;17.216;2024-02-26T14:24:04;7.60;;;1.77;;
79135;SDS011;68533;51.090;17.216;2024-02-26T14:27:29;3.45;;;2.47;;
79135;SDS011;68533;51.090;17.216;2024-02-26T14:30:56;4.20;;;1.67;;
79135;SDS011;68533;51.090;17.216;2024-02-26T14:34:22;11.57;;;2.85;;
79135;SDS011;68533;51.090;17.216;2024-02-26T14:37:47;3.00;;;1.35;;
79135;SDS011;68533;51.090;17.216;2024-02-26T14:41:12;4.18;;;1.98;;
79135;SDS011;68533;51.090;17.216;2024-02-26T14:44:40;4.00;;;1.45;;
79135;SDS011;68533;51.090;17.216;2024-02-26T14:48:05;5.00;;;1.60;;
79135;SDS011;68533;51.090;17.216;2024-02-26T14:51:31;7.63;;;3.50;;
79135;SDS011;68533;51.090;17.216;2024-02-26T14:54:56;3.30;;;1.88;;
79135;SDS011;68533;51.090;17.216;2024-02-26T14:58:24;6.82;;;2.38;;
79135;SDS011;68533;51.090;17.216;2024-02-26T15:01:48;4.97;;;2.30;;
79135;SDS011;68533;51.090;17.216;2024-02-26T15:05:13;5.22;;;2.42;;
79135;SDS011;68533;51.090;17.216;2024-02-26T15:08:37;4.03;;;1.95;;
79135;SDS011;68533;51.090;17.216;2024-02-26T15:12:03;5.25;;;1.90;;
79135;SDS011;68533;51.090;17.216;2024-02-26T15:15:29;6.50;;;2.15;;
79135;SDS011;68533;51.090;17.216;2024-02-26T15:18:54;3.35;;;1.85;;
79135;SDS011;68533;51.090;17.216;2024-02-26T15:22:19;4.53;;;2.15;;
79135;SDS011;68533;51.090;17.216;2024-02-26T15:25:44;5.30;;;2.05;;
79135;SDS011;68533;51.090;17.216;2024-02-26T15:29:09;4.78;;;2.15;;
79135;SDS011;68533;51.090;17.216;2024-02-26T15:32:34;5.90;;;2.90;;
79135;SDS011;68533;51.090;17.216;2024-02-26T15:36:01;5.70;;;2.03;;
79135;SDS011;68533;51.090;17.216;2024-02-26T15:39:27;3.05;;;1.80;;
79135;SDS011;68533;51.090;17.216;2024-02-26T15:42:53;5.22;;;2.05;;
79135;SDS011;68533;51.090;17.216;2024-02-26T15:46:19;2.90;;;1.65;;
79135;SDS011;68533;51.090;17.216;2024-02-26T15:49:43;3.25;;;1.67;;
79135;SDS011;68533;51.090;17.216;2024-02-26T15:53:08;2.25;;;1.27;;
79135;SDS011;68533;51.090;17.216;2024-02-26T15:56:33;3.45;;;1.45;;
79135;SDS011;68533;51.090;17.216;2024-02-26T15:59:58;6.07;;;1.70;;
79135;SDS011;68533;51.090;17.216;2024-02-26T16:03:23;10.10;;;3.78;;
79135;SDS011;68533;51.090;17.216;2024-02-26T16:06:50;4.68;;;2.72;;
79135;SDS011;68533;51.090;17.216;2024-02-26T16:10:21;5.55;;;3.05;;
79135;SDS011;68533;51.090;17.216;2024-02-26T16:13:46;6.30;;;3.45;;
79135;SDS011;68533;51.090;17.216;2024-02-26T16:17:33;7.50;;;3.33;;
79135;SDS011;68533;51.090;17.216;2024-02-26T16:21:00;3.55;;;2.17;;
79135;SDS011;68533;51.090;17.216;2024-02-26T16:24:27;5.07;;;2.63;;
79135;SDS011;68533;51.090;17.216;2024-02-26T16:27:52;8.73;;;3.95;;
79135;SDS011;68533;51.090;17.216;2024-02-26T16:31:19;9.93;;;3.55;;
79135;SDS011;68533;51.090;17.216;2024-02-26T16:34:45;7.63;;;3.63;;
79135;SDS011;68533;51.090;17.216;2024-02-26T16:38:10;7.20;;;3.47;;
79135;SDS011;68533;51.090;17.216;2024-02-26T16:41:35;5.35;;;2.60;;
79135;SDS011;68533;51.090;17.216;2024-02-26T16:45:02;19.77;;;6.85;;
79135;SDS011;68533;51.090;17.216;2024-02-26T16:48:28;33.70;;;10.18;;
79135;SDS011;68533;51.090;17.216;2024-02-26T16:51:53;20.02;;;9.68;;
79135;SDS011;68533;51.090;17.216;2024-02-26T16:55:17;10.65;;;6.25;;
79135;SDS011;68533;51.090;17.216;2024-02-26T16:58:42;13.27;;;7.25;;
79135;SDS011;68533;51.090;17.216;2024-02-26T17:02:07;13.98;;;7.00;;
79135;SDS011;68533;51.090;17.216;2024-02-26T17:05:32;15.30;;;6.22;;
79135;SDS011;68533;51.090;17.216;2024-02-26T17:08:56;14.48;;;6.82;;
79135;SDS011;68533;51.090;17.216;2024-02-26T17:12:21;15.02;;;7.45;;
79135;SDS011;68533;51.090;17.216;2024-02-26T17:15:48;11.88;;;6.85;;
79135;SDS011;68533;51.090;17.216;2024-02-26T17:19:14;10.75;;;4.50;;
79135;SDS011;68533;51.090;17.216;2024-02-26T17:22:40;10.63;;;4.90;;
79135;SDS011;68533;51.090;17.216;2024-02-26T17:26:04;12.57;;;5.60;;
79135;SDS011;68533;51.090;17.216;2024-02-26T17:29:32;18.90;;;7.65;;
79135;SDS011;68533;51.090;17.216;2024-02-26T17:32:57;19.10;;;8.65;;
79135;SDS011;68533;51.090;17.216;2024-02-26T17:36:21;23.35;;;9.77;;
79135;SDS011;68533;51.090;17.216;2024-02-26T17:39:47;22.15;;;9.80;;
79135;SDS011;68533;51.090;17.216;2024-02-26T17:43:16;26.45;;;9.93;;
79135;SDS011;68533;51.090;17.216;2024-02-26T17:46:40;22.45;;;10.02;;
79135;SDS011;68533;51.090;17.216;2024-02-26T17:50:05;24.65;;;11.65;;
79135;SDS011;68533;51.090;17.216;2024-02-26T17:53:32;23.35;;;10.32;;
79135;SDS011;68533;51.090;17.216;2024-02-26T17:56:56;20.80;;;10.98;;
79135;SDS011;68533;51.090;17.216;2024-02-26T18:00:21;25.23;;;10.57;;
79135;SDS011;68533;51.090;17.216;2024-02-26T18:03:46;23.92;;;10.18;;
79135;SDS011;68533;51.090;17.216;2024-02-26T18:07:11;19.17;;;10.10;;
79135;SDS011;68533;51.090;17.216;2024-02-26T18:10:36;24.30;;;9.63;;
79135;SDS011;68533;51.090;17.216;2024-02-26T18:14:01;21.58;;;9.00;;
79135;SDS011;68533;51.090;17.216;2024-02-26T18:17:26;25.58;;;10.32;;
79135;SDS011;68533;51.090;17.216;2024-02-26T18:20:51;23.05;;;10.48;;
79135;SDS011;68533;51.090;17.216;2024-02-26T18:24:16;19.83;;;9.93;;
79135;SDS011;68533;51.090;17.216;2024-02-26T18:27:42;21.17;;;9.15;;
79135;SDS011;68533;51.090;17.216;2024-02-26T18:31:07;28.75;;;10.40;;
79135;SDS011;68533;51.090;17.216;2024-02-26T18:34:32;18.58;;;10.10;;
79135;SDS011;68533;51.090;17.216;2024-02-26T18:37:58;19.48;;;8.63;;
79135;SDS011;68533;51.090;17.216;2024-02-26T18:41:23;20.75;;;8.95;;
79135;SDS011;68533;51.090;17.216;2024-02-26T18:44:47;26.20;;;10.85;;
79135;SDS011;68533;51.090;17.216;2024-02-26T18:48:12;29.27;;;11.88;;
79135;SDS011;68533;51.090;17.216;2024-02-26T18:51:37;27.88;;;11.02;;
79135;SDS011;68533;51.090;17.216;2024-02-26T18:55:05;25.33;;;9.77;;
79135;SDS011;68533;51.090;17.216;2024-02-26T18:58:29;22.95;;;9.05;;
79135;SDS011;68533;51.090;17.216;2024-02-26T19:01:54;24.10;;;10.27;;
79135;SDS011;68533;51.090;17.216;2024-02-26T19:05:19;20.58;;;10.13;;
79135;SDS011;68533;51.090;17.216;2024-02-26T19:08:45;22.42;;;10.02;;
79135;SDS011;68533;51.090;17.216;2024-02-26T19:12:10;21.95;;;10.25;;
79135;SDS011;68533;51.090;17.216;2024-02-26T19:19:01;23.85;;;10.32;;
79135;SDS011;68533;51.090;17.216;2024-02-26T19:22:27;24.25;;;11.18;;
79135;SDS011;68533;51.090;17.216;2024-02-26T19:29:16;24.10;;;11.60;;
79135;SDS011;68533;51.090;17.216;2024-02-26T19:32:40;25.38;;;11.25;;
79135;SDS011;68533;51.090;17.216;2024-02-26T19:36:05;27.50;;;11.77;;
79135;SDS011;68533;51.090;17.216;2024-02-26T19:39:31;26.33;;;13.45;;
79135;SDS011;68533;51.090;17.216;2024-02-26T19:42:55;30.65;;;14.68;;
79135;SDS011;68533;51.090;17.216;2024-02-26T19:46:20;29.70;;;14.80;;
79135;SDS011;68533;51.090;17.216;2024-02-26T19:49:44;28.63;;;14.00;;
79135;SDS011;68533;51.090;17.216;2024-02-26T19:53:11;25.95;;;12.77;;
79135;SDS011;68533;51.090;17.216;2024-02-26T19:56:37;27.13;;;12.95;;
79135;SDS011;68533;51.090;17.216;2024-02-26T20:03:26;37.55;;;15.27;;
79135;SDS011;68533;51.090;17.216;2024-02-26T20:06:52;36.53;;;16.90;;
79135;SDS011;68533;51.090;17.216;2024-02-26T20:10:18;38.22;;;18.20;;
79135;SDS011;68533;51.090;17.216;2024-02-26T20:13:43;34.55;;;15.02;;
79135;SDS011;68533;51.090;17.216;2024-02-26T20:17:11;38.03;;;16.92;;
79135;SDS011;68533;51.090;17.216;2024-02-26T20:20:36;40.00;;;17.48;;
79135;SDS011;68533;51.090;17.216;2024-02-26T20:24:03;34.40;;;16.20;;
79135;SDS011;68533;51.090;17.216;2024-02-26T20:27:29;41.38;;;16.95;;
79135;SDS011;68533;51.090;17.216;2024-02-26T20:30:56;25.38;;;11.50;;
79135;SDS011;68533;51.090;17.216;2024-02-26T20:34:21;29.20;;;12.05;;
79135;SDS011;68533;51.090;17.216;2024-02-26T20:37:45;22.90;;;10.23;;
79135;SDS011;68533;51.090;17.216;2024-02-26T20:41:11;24.88;;;11.30;;
79135;SDS011;68533;51.090;17.216;2024-02-26T20:44:36;20.92;;;10.35;;
79135;SDS011;68533;51.090;17.216;2024-02-26T20:48:08;26.75;;;11.23;;
79135;SDS011;68533;51.090;17.216;2024-02-26T20:51:33;30.00;;;10.95;;
79135;SDS011;68533;51.090;17.216;2024-02-26T20:54:59;33.78;;;11.13;;